sensor_id;sensor_type;location;lat;lon;timestamp;P1;durP1;ratioP1;P2;durP2;ratioP2
5117;SDS011;2578;51.622;7.046;2023-03-13T00:01:55;8.60;;;8.03;;
5117;SDS011;2578;51.622;7.046;2023-03-13T00:04:21;8.80;;;7.73;;
5117;SDS011;2578;51.622;7.046;2023-03-13T00:06:46;7.70;;;7.20;;
5117;SDS011;2578;51.622;7.046;2023-03-13T00:09:13;7.27;;;6.77;;
5117;SDS011;2578;51.622;7.046;2023-03-13T00:11:40;7.43;;;6.70;;
5117;SDS011;2578;51.622;7.046;2023-03-13T00:14:07;5.90;;;5.50;;
5117;SDS011;2578;51.622;7.046;2023-03-13T00:16:32;6.80;;;6.30;;
5117;SDS011;2578;51.622;7.046;2023-03-13T00:18:59;6.97;;;6.27;;
5117;SDS011;2578;51.622;7.046;2023-03-13T00:21:26;5.27;;;4.87;;
5117;SDS011;2578;51.622;7.046;2023-03-13T00:23:52;5.83;;;5.33;;
5117;SDS011;2578;51.622;7.046;2023-03-13T00:26:22;4.60;;;4.20;;
5117;SDS011;2578;51.622;7.046;2023-03-13T00:28:50;4.50;;;4.10;;
5117;SDS011;2578;51.622;7.046;2023-03-13T00:33:43;8.90;;;6.23;;
5117;SDS011;2578;51.622;7.046;2023-03-13T00:36:14;4.17;;;3.40;;
5117;SDS011;2578;51.622;7.046;2023-03-13T00:38:41;4.33;;;3.93;;
5117;SDS011;2578;51.622;7.046;2023-03-13T00:41:14;4.80;;;3.43;;
5117;SDS011;2578;51.622;7.046;2023-03-13T00:43:42;5.50;;;4.67;;
5117;SDS011;2578;51.622;7.046;2023-03-13T00:46:08;8.90;;;3.30;;
5117;SDS011;2578;51.622;7.046;2023-03-13T00:48:35;4.40;;;3.50;;
5117;SDS011;2578;51.622;7.046;2023-03-13T00:51:01;4.80;;;3.40;;
5117;SDS011;2578;51.622;7.046;2023-03-13T00:53:27;3.37;;;2.80;;
5117;SDS011;2578;51.622;7.046;2023-03-13T00:58:20;3.80;;;3.40;;
5117;SDS011;2578;51.622;7.046;2023-03-13T01:00:45;4.03;;;3.63;;
5117;SDS011;2578;51.622;7.046;2023-03-13T01:03:11;5.23;;;3.30;;
5117;SDS011;2578;51.622;7.046;2023-03-13T01:05:37;13.50;;;3.87;;
5117;SDS011;2578;51.622;7.046;2023-03-13T01:08:02;3.80;;;3.03;;
5117;SDS011;2578;51.622;7.046;2023-03-13T01:10:28;3.30;;;2.53;;
5117;SDS011;2578;51.622;7.046;2023-03-13T01:12:54;3.40;;;2.70;;
5117;SDS011;2578;51.622;7.046;2023-03-13T01:15:19;3.23;;;2.40;;
5117;SDS011;2578;51.622;7.046;2023-03-13T01:17:45;3.20;;;2.33;;
5117;SDS011;2578;51.622;7.046;2023-03-13T01:20:10;3.77;;;3.03;;
5117;SDS011;2578;51.622;7.046;2023-03-13T01:22:37;19.23;;;5.03;;
5117;SDS011;2578;51.622;7.046;2023-03-13T01:25:03;3.40;;;2.50;;
5117;SDS011;2578;51.622;7.046;2023-03-13T01:27:29;3.37;;;2.70;;
5117;SDS011;2578;51.622;7.046;2023-03-13T01:29:55;3.30;;;2.50;;
5117;SDS011;2578;51.622;7.046;2023-03-13T01:32:21;3.93;;;3.53;;
5117;SDS011;2578;51.622;7.046;2023-03-13T01:34:47;4.97;;;4.50;;
5117;SDS011;2578;51.622;7.046;2023-03-13T01:37:12;4.40;;;4.00;;
5117;SDS011;2578;51.622;7.046;2023-03-13T01:39:38;13.80;;;5.50;;
5117;SDS011;2578;51.622;7.046;2023-03-13T01:42:04;5.00;;;4.60;;
5117;SDS011;2578;51.622;7.046;2023-03-13T01:44:47;6.07;;;5.57;;
5117;SDS011;2578;51.622;7.046;2023-03-13T01:47:20;5.40;;;5.00;;
5117;SDS011;2578;51.622;7.046;2023-03-13T01:49:46;6.00;;;5.60;;
5117;SDS011;2578;51.622;7.046;2023-03-13T01:52:24;23.67;;;7.30;;
5117;SDS011;2578;51.622;7.046;2023-03-13T01:54:54;7.50;;;7.00;;
5117;SDS011;2578;51.622;7.046;2023-03-13T01:59:51;8.33;;;7.63;;
5117;SDS011;2578;51.622;7.046;2023-03-13T02:02:22;8.03;;;7.43;;
5117;SDS011;2578;51.622;7.046;2023-03-13T02:04:49;15.57;;;8.43;;
5117;SDS011;2578;51.622;7.046;2023-03-13T02:07:21;10.70;;;7.63;;
5117;SDS011;2578;51.622;7.046;2023-03-13T02:09:52;8.30;;;7.80;;
5117;SDS011;2578;51.622;7.046;2023-03-13T02:12:26;8.17;;;7.67;;
5117;SDS011;2578;51.622;7.046;2023-03-13T02:14:55;8.40;;;7.80;;
5117;SDS011;2578;51.622;7.046;2023-03-13T02:17:23;8.10;;;7.60;;
5117;SDS011;2578;51.622;7.046;2023-03-13T02:19:50;14.00;;;9.50;;
5117;SDS011;2578;51.622;7.046;2023-03-13T02:25:08;8.30;;;7.80;;
5117;SDS011;2578;51.622;7.046;2023-03-13T02:27:37;8.53;;;7.93;;
5117;SDS011;2578;51.622;7.046;2023-03-13T02:30:03;8.93;;;8.33;;
5117;SDS011;2578;51.622;7.046;2023-03-13T02:32:30;8.60;;;8.00;;
5117;SDS011;2578;51.622;7.046;2023-03-13T02:34:57;9.00;;;8.40;;
5117;SDS011;2578;51.622;7.046;2023-03-13T02:37:28;9.80;;;9.20;;
5117;SDS011;2578;51.622;7.046;2023-03-13T02:39:55;9.97;;;8.90;;
5117;SDS011;2578;51.622;7.046;2023-03-13T02:42:25;10.43;;;9.43;;
5117;SDS011;2578;51.622;7.046;2023-03-13T02:44:52;34.23;;;12.63;;
5117;SDS011;2578;51.622;7.046;2023-03-13T02:47:21;9.17;;;8.57;;
5117;SDS011;2578;51.622;7.046;2023-03-13T02:49:48;8.47;;;7.80;;
5117;SDS011;2578;51.622;7.046;2023-03-13T02:54:43;26.83;;;10.30;;
5117;SDS011;2578;51.622;7.046;2023-03-13T02:57:11;8.97;;;8.37;;
5117;SDS011;2578;51.622;7.046;2023-03-13T02:59:37;11.10;;;10.20;;
5117;SDS011;2578;51.622;7.046;2023-03-13T03:02:03;9.40;;;8.73;;
5117;SDS011;2578;51.622;7.046;2023-03-13T03:04:29;8.30;;;7.70;;
5117;SDS011;2578;51.622;7.046;2023-03-13T03:06:55;13.83;;;8.80;;
5117;SDS011;2578;51.622;7.046;2023-03-13T03:09:21;9.03;;;8.27;;
5117;SDS011;2578;51.622;7.046;2023-03-13T03:11:47;7.60;;;7.10;;
5117;SDS011;2578;51.622;7.046;2023-03-13T03:14:13;8.17;;;7.67;;
5117;SDS011;2578;51.622;7.046;2023-03-13T03:16:40;7.90;;;7.40;;
5117;SDS011;2578;51.622;7.046;2023-03-13T03:19:05;11.90;;;8.23;;
5117;SDS011;2578;51.622;7.046;2023-03-13T03:21:31;12.73;;;8.77;;
5117;SDS011;2578;51.622;7.046;2023-03-13T03:23:57;7.87;;;7.37;;
5117;SDS011;2578;51.622;7.046;2023-03-13T03:26:23;8.20;;;7.70;;
5117;SDS011;2578;51.622;7.046;2023-03-13T03:28:49;8.27;;;7.57;;
5117;SDS011;2578;51.622;7.046;2023-03-13T03:31:15;7.90;;;7.40;;
5117;SDS011;2578;51.622;7.046;2023-03-13T03:33:41;9.03;;;8.33;;
5117;SDS011;2578;51.622;7.046;2023-03-13T03:36:09;15.77;;;11.00;;
5117;SDS011;2578;51.622;7.046;2023-03-13T03:38:37;8.53;;;8.03;;
5117;SDS011;2578;51.622;7.046;2023-03-13T03:41:04;8.80;;;8.20;;
5117;SDS011;2578;51.622;7.046;2023-03-13T03:43:33;9.13;;;8.43;;
5117;SDS011;2578;51.622;7.046;2023-03-13T03:45:59;8.33;;;7.83;;
5117;SDS011;2578;51.622;7.046;2023-03-13T03:48:25;9.10;;;8.50;;
5117;SDS011;2578;51.622;7.046;2023-03-13T03:50:51;9.40;;;8.80;;
5117;SDS011;2578;51.622;7.046;2023-03-13T03:53:17;8.30;;;7.80;;
5117;SDS011;2578;51.622;7.046;2023-03-13T03:55:43;8.30;;;7.80;;
5117;SDS011;2578;51.622;7.046;2023-03-13T03:58:09;8.90;;;8.30;;
5117;SDS011;2578;51.622;7.046;2023-03-13T04:00:35;10.20;;;9.40;;
5117;SDS011;2578;51.622;7.046;2023-03-13T04:03:00;9.87;;;9.27;;
5117;SDS011;2578;51.622;7.046;2023-03-13T04:05:26;10.30;;;9.50;;
5117;SDS011;2578;51.622;7.046;2023-03-13T04:07:52;10.40;;;9.60;;
5117;SDS011;2578;51.622;7.046;2023-03-13T04:10:18;10.40;;;9.43;;
5117;SDS011;2578;51.622;7.046;2023-03-13T04:12:43;14.33;;;9.80;;
5117;SDS011;2578;51.622;7.046;2023-03-13T04:15:09;9.47;;;8.77;;
5117;SDS011;2578;51.622;7.046;2023-03-13T04:17:35;14.30;;;9.80;;
5117;SDS011;2578;51.622;7.046;2023-03-13T04:20:01;9.00;;;8.40;;
5117;SDS011;2578;51.622;7.046;2023-03-13T04:22:28;9.00;;;8.30;;
5117;SDS011;2578;51.622;7.046;2023-03-13T04:24:54;8.90;;;8.30;;
5117;SDS011;2578;51.622;7.046;2023-03-13T04:27:20;9.20;;;8.60;;
5117;SDS011;2578;51.622;7.046;2023-03-13T04:29:45;9.40;;;8.80;;
5117;SDS011;2578;51.622;7.046;2023-03-13T04:32:11;11.83;;;10.97;;
5117;SDS011;2578;51.622;7.046;2023-03-13T04:34:37;9.60;;;9.00;;
5117;SDS011;2578;51.622;7.046;2023-03-13T04:37:02;9.10;;;8.50;;
5117;SDS011;2578;51.622;7.046;2023-03-13T04:39:28;9.10;;;8.50;;
5117;SDS011;2578;51.622;7.046;2023-03-13T04:41:54;8.40;;;7.90;;
5117;SDS011;2578;51.622;7.046;2023-03-13T04:44:21;8.50;;;8.00;;
5117;SDS011;2578;51.622;7.046;2023-03-13T04:46:47;9.23;;;8.63;;
5117;SDS011;2578;51.622;7.046;2023-03-13T04:49:13;9.27;;;8.63;;
5117;SDS011;2578;51.622;7.046;2023-03-13T04:51:43;8.90;;;8.30;;
5117;SDS011;2578;51.622;7.046;2023-03-13T04:54:09;8.80;;;8.20;;
5117;SDS011;2578;51.622;7.046;2023-03-13T04:56:35;9.60;;;9.00;;
5117;SDS011;2578;51.622;7.046;2023-03-13T04:59:01;8.50;;;8.00;;
5117;SDS011;2578;51.622;7.046;2023-03-13T05:01:26;9.57;;;8.87;;
5117;SDS011;2578;51.622;7.046;2023-03-13T05:03:52;8.90;;;8.30;;
5117;SDS011;2578;51.622;7.046;2023-03-13T05:06:18;9.57;;;8.97;;
5117;SDS011;2578;51.622;7.046;2023-03-13T05:08:43;8.50;;;7.93;;
5117;SDS011;2578;51.622;7.046;2023-03-13T05:11:09;9.53;;;8.93;;
5117;SDS011;2578;51.622;7.046;2023-03-13T05:13:35;9.07;;;8.47;;
5117;SDS011;2578;51.622;7.046;2023-03-13T05:16:01;10.10;;;9.10;;
5117;SDS011;2578;51.622;7.046;2023-03-13T05:18:27;9.57;;;8.87;;
5117;SDS011;2578;51.622;7.046;2023-03-13T05:20:53;9.27;;;8.67;;
5117;SDS011;2578;51.622;7.046;2023-03-13T05:23:18;9.30;;;8.70;;
5117;SDS011;2578;51.622;7.046;2023-03-13T05:25:44;11.03;;;10.13;;
5117;SDS011;2578;51.622;7.046;2023-03-13T05:28:09;10.13;;;9.43;;
5117;SDS011;2578;51.622;7.046;2023-03-13T05:30:35;11.83;;;10.90;;
5117;SDS011;2578;51.622;7.046;2023-03-13T05:33:01;9.50;;;8.90;;
5117;SDS011;2578;51.622;7.046;2023-03-13T05:35:27;10.70;;;10.00;;
5117;SDS011;2578;51.622;7.046;2023-03-13T05:37:52;14.57;;;13.33;;
5117;SDS011;2578;51.622;7.046;2023-03-13T05:40:18;11.20;;;10.20;;
5117;SDS011;2578;51.622;7.046;2023-03-13T05:42:44;12.00;;;10.83;;
5117;SDS011;2578;51.622;7.046;2023-03-13T05:45:10;10.60;;;9.90;;
5117;SDS011;2578;51.622;7.046;2023-03-13T05:47:36;11.00;;;10.20;;
5117;SDS011;2578;51.622;7.046;2023-03-13T05:50:03;10.60;;;10.00;;
5117;SDS011;2578;51.622;7.046;2023-03-13T05:52:30;11.80;;;11.10;;
5117;SDS011;2578;51.622;7.046;2023-03-13T05:54:56;13.10;;;12.30;;
5117;SDS011;2578;51.622;7.046;2023-03-13T05:57:21;13.50;;;12.70;;
5117;SDS011;2578;51.622;7.046;2023-03-13T05:59:47;13.43;;;12.60;;
5117;SDS011;2578;51.622;7.046;2023-03-13T06:02:13;16.33;;;15.13;;
5117;SDS011;2578;51.622;7.046;2023-03-13T06:04:38;14.70;;;13.70;;
5117;SDS011;2578;51.622;7.046;2023-03-13T06:07:04;14.67;;;13.77;;
5117;SDS011;2578;51.622;7.046;2023-03-13T06:09:30;16.20;;;15.20;;
5117;SDS011;2578;51.622;7.046;2023-03-13T06:11:55;16.67;;;15.40;;
5117;SDS011;2578;51.622;7.046;2023-03-13T06:14:21;16.90;;;15.60;;
5117;SDS011;2578;51.622;7.046;2023-03-13T06:16:46;14.40;;;13.60;;
5117;SDS011;2578;51.622;7.046;2023-03-13T06:19:12;14.97;;;14.07;;
5117;SDS011;2578;51.622;7.046;2023-03-13T06:21:38;14.33;;;13.33;;
5117;SDS011;2578;51.622;7.046;2023-03-13T06:24:04;14.57;;;13.67;;
5117;SDS011;2578;51.622;7.046;2023-03-13T06:26:29;14.47;;;13.53;;
5117;SDS011;2578;51.622;7.046;2023-03-13T06:28:55;15.00;;;14.00;;
5117;SDS011;2578;51.622;7.046;2023-03-13T06:31:21;16.13;;;15.03;;
5117;SDS011;2578;51.622;7.046;2023-03-13T06:33:46;14.60;;;13.70;;
5117;SDS011;2578;51.622;7.046;2023-03-13T06:36:12;15.20;;;14.20;;
5117;SDS011;2578;51.622;7.046;2023-03-13T06:38:38;14.40;;;13.60;;
5117;SDS011;2578;51.622;7.046;2023-03-13T06:41:04;14.53;;;13.63;;
5117;SDS011;2578;51.622;7.046;2023-03-13T06:43:29;13.10;;;12.30;;
5117;SDS011;2578;51.622;7.046;2023-03-13T06:45:55;13.70;;;12.80;;
5117;SDS011;2578;51.622;7.046;2023-03-13T06:48:21;14.20;;;13.20;;
5117;SDS011;2578;51.622;7.046;2023-03-13T06:50:47;14.60;;;13.73;;
5117;SDS011;2578;51.622;7.046;2023-03-13T06:53:17;14.77;;;13.87;;
5117;SDS011;2578;51.622;7.046;2023-03-13T06:55:43;15.57;;;14.53;;
5117;SDS011;2578;51.622;7.046;2023-03-13T06:58:10;15.13;;;14.13;;
5117;SDS011;2578;51.622;7.046;2023-03-13T07:00:36;14.17;;;13.07;;
5117;SDS011;2578;51.622;7.046;2023-03-13T07:03:03;14.10;;;13.00;;
5117;SDS011;2578;51.622;7.046;2023-03-13T07:05:29;13.43;;;12.63;;
5117;SDS011;2578;51.622;7.046;2023-03-13T07:07:55;14.50;;;13.47;;
5117;SDS011;2578;51.622;7.046;2023-03-13T07:10:20;11.90;;;11.10;;
5117;SDS011;2578;51.622;7.046;2023-03-13T07:12:46;13.60;;;12.70;;
5117;SDS011;2578;51.622;7.046;2023-03-13T07:15:11;13.77;;;12.87;;
5117;SDS011;2578;51.622;7.046;2023-03-13T07:17:37;12.10;;;11.33;;
5117;SDS011;2578;51.622;7.046;2023-03-13T07:20:03;12.30;;;11.60;;
5117;SDS011;2578;51.622;7.046;2023-03-13T07:22:30;13.70;;;12.47;;
5117;SDS011;2578;51.622;7.046;2023-03-13T07:24:56;10.90;;;10.20;;
5117;SDS011;2578;51.622;7.046;2023-03-13T07:27:21;11.87;;;11.07;;
5117;SDS011;2578;51.622;7.046;2023-03-13T07:29:47;12.03;;;11.13;;
5117;SDS011;2578;51.622;7.046;2023-03-13T07:32:13;10.77;;;10.07;;
5117;SDS011;2578;51.622;7.046;2023-03-13T07:34:39;10.43;;;9.83;;
5117;SDS011;2578;51.622;7.046;2023-03-13T07:37:08;12.57;;;11.67;;
5117;SDS011;2578;51.622;7.046;2023-03-13T07:39:37;11.23;;;10.53;;
5117;SDS011;2578;51.622;7.046;2023-03-13T07:42:02;10.70;;;10.00;;
5117;SDS011;2578;51.622;7.046;2023-03-13T07:44:28;12.10;;;11.20;;
5117;SDS011;2578;51.622;7.046;2023-03-13T07:46:54;10.60;;;9.80;;
5117;SDS011;2578;51.622;7.046;2023-03-13T07:49:19;11.07;;;10.27;;
5117;SDS011;2578;51.622;7.046;2023-03-13T07:51:45;10.17;;;9.47;;
5117;SDS011;2578;51.622;7.046;2023-03-13T07:54:12;9.03;;;8.43;;
5117;SDS011;2578;51.622;7.046;2023-03-13T07:56:38;10.20;;;9.27;;
5117;SDS011;2578;51.622;7.046;2023-03-13T07:59:04;11.30;;;10.40;;
5117;SDS011;2578;51.622;7.046;2023-03-13T08:01:29;9.90;;;9.20;;
5117;SDS011;2578;51.622;7.046;2023-03-13T08:03:55;9.33;;;8.70;;
5117;SDS011;2578;51.622;7.046;2023-03-13T08:06:23;9.50;;;8.90;;
5117;SDS011;2578;51.622;7.046;2023-03-13T08:08:50;10.73;;;9.83;;
5117;SDS011;2578;51.622;7.046;2023-03-13T08:11:20;9.47;;;8.87;;
5117;SDS011;2578;51.622;7.046;2023-03-13T08:13:49;9.10;;;8.50;;
5117;SDS011;2578;51.622;7.046;2023-03-13T08:16:19;9.37;;;8.77;;
5117;SDS011;2578;51.622;7.046;2023-03-13T08:18:50;12.93;;;11.73;;
5117;SDS011;2578;51.622;7.046;2023-03-13T08:21:19;18.40;;;13.20;;
5117;SDS011;2578;51.622;7.046;2023-03-13T08:23:51;12.30;;;11.23;;
5117;SDS011;2578;51.622;7.046;2023-03-13T08:26:19;10.93;;;10.13;;
5117;SDS011;2578;51.622;7.046;2023-03-13T08:28:46;12.17;;;11.10;;
5117;SDS011;2578;51.622;7.046;2023-03-13T08:31:17;14.10;;;9.77;;
5117;SDS011;2578;51.622;7.046;2023-03-13T08:33:43;11.63;;;10.50;;
5117;SDS011;2578;51.622;7.046;2023-03-13T08:38:36;10.57;;;9.50;;
5117;SDS011;2578;51.622;7.046;2023-03-13T08:41:03;9.40;;;8.80;;
5117;SDS011;2578;51.622;7.046;2023-03-13T08:43:28;10.00;;;9.30;;
5117;SDS011;2578;51.622;7.046;2023-03-13T08:45:54;9.43;;;8.73;;
5117;SDS011;2578;51.622;7.046;2023-03-13T08:48:21;8.90;;;8.30;;
5117;SDS011;2578;51.622;7.046;2023-03-13T08:50:46;9.70;;;8.80;;
5117;SDS011;2578;51.622;7.046;2023-03-13T08:53:12;10.57;;;9.77;;
5117;SDS011;2578;51.622;7.046;2023-03-13T08:55:38;10.00;;;9.30;;
5117;SDS011;2578;51.622;7.046;2023-03-13T08:58:03;10.47;;;9.67;;
5117;SDS011;2578;51.622;7.046;2023-03-13T09:00:29;10.40;;;9.70;;
5117;SDS011;2578;51.622;7.046;2023-03-13T09:02:58;9.40;;;8.80;;
5117;SDS011;2578;51.622;7.046;2023-03-13T09:05:23;9.67;;;8.97;;
5117;SDS011;2578;51.622;7.046;2023-03-13T09:07:49;12.80;;;9.30;;
5117;SDS011;2578;51.622;7.046;2023-03-13T09:10:14;11.03;;;10.33;;
5117;SDS011;2578;51.622;7.046;2023-03-13T09:12:40;10.80;;;10.10;;
5117;SDS011;2578;51.622;7.046;2023-03-13T09:15:06;11.90;;;11.10;;
5117;SDS011;2578;51.622;7.046;2023-03-13T09:17:32;11.87;;;11.07;;
5117;SDS011;2578;51.622;7.046;2023-03-13T09:19:58;13.00;;;12.20;;
5117;SDS011;2578;51.622;7.046;2023-03-13T09:22:23;13.70;;;12.70;;
5117;SDS011;2578;51.622;7.046;2023-03-13T09:24:49;13.70;;;12.80;;
5117;SDS011;2578;51.622;7.046;2023-03-13T09:27:14;13.73;;;12.83;;
5117;SDS011;2578;51.622;7.046;2023-03-13T09:29:40;15.07;;;13.70;;
5117;SDS011;2578;51.622;7.046;2023-03-13T09:32:06;13.97;;;12.97;;
5117;SDS011;2578;51.622;7.046;2023-03-13T09:34:34;13.83;;;12.83;;
5117;SDS011;2578;51.622;7.046;2023-03-13T09:36:59;13.20;;;12.30;;
5117;SDS011;2578;51.622;7.046;2023-03-13T09:39:25;14.93;;;13.70;;
5117;SDS011;2578;51.622;7.046;2023-03-13T09:41:58;14.57;;;13.10;;
5117;SDS011;2578;51.622;7.046;2023-03-13T09:44:39;13.70;;;12.80;;
5117;SDS011;2578;51.622;7.046;2023-03-13T09:49:48;18.70;;;14.87;;
5117;SDS011;2578;51.622;7.046;2023-03-13T09:52:30;15.83;;;14.57;;
5117;SDS011;2578;51.622;7.046;2023-03-13T09:55:09;15.50;;;14.40;;
5117;SDS011;2578;51.622;7.046;2023-03-13T09:57:46;14.10;;;13.10;;
5117;SDS011;2578;51.622;7.046;2023-03-13T10:00:42;14.53;;;13.53;;
5117;SDS011;2578;51.622;7.046;2023-03-13T10:03:16;13.50;;;12.60;;
5117;SDS011;2578;51.622;7.046;2023-03-13T10:08:48;15.20;;;13.70;;
5117;SDS011;2578;51.622;7.046;2023-03-13T10:14:08;14.80;;;13.70;;
5117;SDS011;2578;51.622;7.046;2023-03-13T10:16:52;14.30;;;13.30;;
5117;SDS011;2578;51.622;7.046;2023-03-13T10:19:40;14.73;;;13.70;;
5117;SDS011;2578;51.622;7.046;2023-03-13T10:22:11;15.13;;;14.03;;
5117;SDS011;2578;51.622;7.046;2023-03-13T10:24:41;14.80;;;13.80;;
5117;SDS011;2578;51.622;7.046;2023-03-13T10:27:15;14.40;;;13.33;;
5117;SDS011;2578;51.622;7.046;2023-03-13T10:29:41;13.80;;;12.90;;
5117;SDS011;2578;51.622;7.046;2023-03-13T10:32:07;13.10;;;12.20;;
5117;SDS011;2578;51.622;7.046;2023-03-13T10:34:53;12.00;;;11.20;;
5117;SDS011;2578;51.622;7.046;2023-03-13T10:37:26;13.20;;;12.00;;
5117;SDS011;2578;51.622;7.046;2023-03-13T10:42:42;12.43;;;11.60;;
5117;SDS011;2578;51.622;7.046;2023-03-13T10:45:12;12.23;;;11.33;;
5117;SDS011;2578;51.622;7.046;2023-03-13T10:47:40;11.43;;;10.73;;
5117;SDS011;2578;51.622;7.046;2023-03-13T10:50:06;12.37;;;11.57;;
5117;SDS011;2578;51.622;7.046;2023-03-13T10:52:33;12.20;;;11.40;;
5117;SDS011;2578;51.622;7.046;2023-03-13T10:55:09;14.40;;;13.40;;
5117;SDS011;2578;51.622;7.046;2023-03-13T10:57:36;15.50;;;14.50;;
5117;SDS011;2578;51.622;7.046;2023-03-13T11:00:27;17.80;;;16.43;;
5117;SDS011;2578;51.622;7.046;2023-03-13T11:02:48;18.43;;;17.03;;
5117;SDS011;2578;51.622;7.046;2023-03-13T11:07:57;19.07;;;17.53;;
5117;SDS011;2578;51.622;7.046;2023-03-13T11:13:35;18.93;;;17.40;;
5117;SDS011;2578;51.622;7.046;2023-03-13T11:16:12;17.40;;;16.20;;
5117;SDS011;2578;51.622;7.046;2023-03-13T11:21:40;16.60;;;15.40;;
5117;SDS011;2578;51.622;7.046;2023-03-13T11:24:11;16.70;;;15.50;;
5117;SDS011;2578;51.622;7.046;2023-03-13T11:26:53;16.53;;;15.43;;
5117;SDS011;2578;51.622;7.046;2023-03-13T11:29:48;18.67;;;16.80;;
5117;SDS011;2578;51.622;7.046;2023-03-13T11:32:21;17.70;;;16.40;;
5117;SDS011;2578;51.622;7.046;2023-03-13T11:34:56;17.20;;;15.90;;
5117;SDS011;2578;51.622;7.046;2023-03-13T11:37:24;17.50;;;16.30;;
5117;SDS011;2578;51.622;7.046;2023-03-13T11:51:09;18.10;;;16.80;;
5117;SDS011;2578;51.622;7.046;2023-03-13T11:57:28;17.03;;;15.83;;
5117;SDS011;2578;51.622;7.046;2023-03-13T12:02:35;18.90;;;17.30;;
5117;SDS011;2578;51.622;7.046;2023-03-13T12:05:07;18.43;;;17.13;;
5117;SDS011;2578;51.622;7.046;2023-03-13T12:07:56;17.50;;;16.10;;
5117;SDS011;2578;51.622;7.046;2023-03-13T12:10:30;17.67;;;16.17;;
5117;SDS011;2578;51.622;7.046;2023-03-13T12:15:56;17.83;;;16.53;;
5117;SDS011;2578;51.622;7.046;2023-03-13T12:18:30;18.30;;;16.90;;
5117;SDS011;2578;51.622;7.046;2023-03-13T12:21:09;18.00;;;16.70;;
5117;SDS011;2578;51.622;7.046;2023-03-13T12:26:12;18.23;;;16.93;;
5117;SDS011;2578;51.622;7.046;2023-03-13T12:31:17;18.17;;;16.87;;
5117;SDS011;2578;51.622;7.046;2023-03-13T12:33:47;17.60;;;16.40;;
5117;SDS011;2578;51.622;7.046;2023-03-13T12:36:32;18.17;;;16.87;;
5117;SDS011;2578;51.622;7.046;2023-03-13T12:41:56;21.33;;;19.40;;
5117;SDS011;2578;51.622;7.046;2023-03-13T12:44:33;20.27;;;18.70;;
5117;SDS011;2578;51.622;7.046;2023-03-13T12:54:53;22.20;;;20.50;;
5117;SDS011;2578;51.622;7.046;2023-03-13T13:00:10;21.83;;;20.13;;
5117;SDS011;2578;51.622;7.046;2023-03-13T13:02:40;22.27;;;20.57;;
5117;SDS011;2578;51.622;7.046;2023-03-13T13:05:15;23.03;;;21.33;;
5117;SDS011;2578;51.622;7.046;2023-03-13T13:07:50;23.27;;;21.57;;
5117;SDS011;2578;51.622;7.046;2023-03-13T13:10:20;20.80;;;19.20;;
5117;SDS011;2578;51.622;7.046;2023-03-13T13:15:39;22.43;;;20.73;;
5117;SDS011;2578;51.622;7.046;2023-03-13T13:18:24;21.60;;;20.00;;
5117;SDS011;2578;51.622;7.046;2023-03-13T13:28:57;20.30;;;18.80;;
5117;SDS011;2578;51.622;7.046;2023-03-13T13:37:02;20.70;;;19.10;;
5117;SDS011;2578;51.622;7.046;2023-03-13T13:39:48;20.87;;;19.27;;
5117;SDS011;2578;51.622;7.046;2023-03-13T13:45:00;21.07;;;19.47;;
5117;SDS011;2578;51.622;7.046;2023-03-13T13:47:43;20.70;;;19.20;;
5117;SDS011;2578;51.622;7.046;2023-03-13T13:50:18;21.57;;;20.00;;
5117;SDS011;2578;51.622;7.046;2023-03-13T13:52:49;20.00;;;18.50;;
5117;SDS011;2578;51.622;7.046;2023-03-13T13:58:11;21.70;;;19.77;;
5117;SDS011;2578;51.622;7.046;2023-03-13T14:00:45;20.70;;;19.20;;
5117;SDS011;2578;51.622;7.046;2023-03-13T14:03:25;20.63;;;19.13;;
5117;SDS011;2578;51.622;7.046;2023-03-13T14:05:58;20.87;;;19.07;;
5117;SDS011;2578;51.622;7.046;2023-03-13T14:08:40;19.90;;;18.50;;
5117;SDS011;2578;51.622;7.046;2023-03-13T14:14:15;20.10;;;18.70;;
5117;SDS011;2578;51.622;7.046;2023-03-13T14:17:04;19.30;;;18.00;;
5117;SDS011;2578;51.622;7.046;2023-03-13T14:19:29;20.47;;;18.97;;
5117;SDS011;2578;51.622;7.046;2023-03-13T14:22:05;18.80;;;17.50;;
5117;SDS011;2578;51.622;7.046;2023-03-13T14:24:33;18.40;;;17.10;;
5117;SDS011;2578;51.622;7.046;2023-03-13T14:27:00;18.40;;;17.10;;
5117;SDS011;2578;51.622;7.046;2023-03-13T14:29:26;18.47;;;17.17;;
5117;SDS011;2578;51.622;7.046;2023-03-13T14:31:56;18.60;;;17.30;;
5117;SDS011;2578;51.622;7.046;2023-03-13T14:34:24;18.47;;;17.17;;
5117;SDS011;2578;51.622;7.046;2023-03-13T14:36:52;19.63;;;18.23;;
5117;SDS011;2578;51.622;7.046;2023-03-13T14:42:09;18.97;;;17.67;;
5117;SDS011;2578;51.622;7.046;2023-03-13T14:44:37;20.20;;;18.70;;
5117;SDS011;2578;51.622;7.046;2023-03-13T14:47:06;17.60;;;16.40;;
5117;SDS011;2578;51.622;7.046;2023-03-13T14:49:46;17.70;;;16.50;;
5117;SDS011;2578;51.622;7.046;2023-03-13T14:57:25;18.40;;;17.10;;
5117;SDS011;2578;51.622;7.046;2023-03-13T14:59:51;18.20;;;16.80;;
5117;SDS011;2578;51.622;7.046;2023-03-13T15:02:22;18.40;;;17.10;;
5117;SDS011;2578;51.622;7.046;2023-03-13T15:04:59;17.63;;;16.43;;
5117;SDS011;2578;51.622;7.046;2023-03-13T15:07:40;18.33;;;17.03;;
5117;SDS011;2578;51.622;7.046;2023-03-13T15:10:21;17.83;;;16.63;;
5117;SDS011;2578;51.622;7.046;2023-03-13T15:12:55;19.40;;;17.97;;
5117;SDS011;2578;51.622;7.046;2023-03-13T15:15:20;18.30;;;17.00;;
5117;SDS011;2578;51.622;7.046;2023-03-13T15:17:46;18.20;;;16.97;;
5117;SDS011;2578;51.622;7.046;2023-03-13T15:20:12;18.13;;;16.93;;
5117;SDS011;2578;51.622;7.046;2023-03-13T15:22:40;17.70;;;16.50;;
5117;SDS011;2578;51.622;7.046;2023-03-13T15:25:15;16.90;;;15.80;;
5117;SDS011;2578;51.622;7.046;2023-03-13T15:27:46;17.50;;;16.30;;
5117;SDS011;2578;51.622;7.046;2023-03-13T15:30:16;17.00;;;15.90;;
5117;SDS011;2578;51.622;7.046;2023-03-13T15:32:47;18.53;;;17.23;;
5117;SDS011;2578;51.622;7.046;2023-03-13T15:37:57;18.53;;;17.23;;
5117;SDS011;2578;51.622;7.046;2023-03-13T15:40:24;18.23;;;16.97;;
5117;SDS011;2578;51.622;7.046;2023-03-13T15:42:51;20.03;;;18.53;;
5117;SDS011;2578;51.622;7.046;2023-03-13T15:45:17;22.33;;;20.50;;
5117;SDS011;2578;51.622;7.046;2023-03-13T15:47:43;23.63;;;21.90;;
5117;SDS011;2578;51.622;7.046;2023-03-13T15:50:12;24.67;;;22.40;;
5117;SDS011;2578;51.622;7.046;2023-03-13T15:52:40;22.60;;;20.90;;
5117;SDS011;2578;51.622;7.046;2023-03-13T15:55:06;22.67;;;20.97;;
5117;SDS011;2578;51.622;7.046;2023-03-13T15:57:32;23.30;;;21.60;;
5117;SDS011;2578;51.622;7.046;2023-03-13T16:00:00;22.50;;;20.90;;
5117;SDS011;2578;51.622;7.046;2023-03-13T16:02:26;23.20;;;21.50;;
5117;SDS011;2578;51.622;7.046;2023-03-13T16:04:52;23.60;;;21.60;;
5117;SDS011;2578;51.622;7.046;2023-03-13T16:07:20;23.30;;;21.50;;
5117;SDS011;2578;51.622;7.046;2023-03-13T16:09:46;22.50;;;20.80;;
5117;SDS011;2578;51.622;7.046;2023-03-13T16:12:12;22.77;;;21.17;;
5117;SDS011;2578;51.622;7.046;2023-03-13T16:14:37;22.30;;;20.70;;
5117;SDS011;2578;51.622;7.046;2023-03-13T16:17:14;22.03;;;20.53;;
5117;SDS011;2578;51.622;7.046;2023-03-13T16:19:41;20.43;;;19.03;;
5117;SDS011;2578;51.622;7.046;2023-03-13T16:22:07;20.67;;;19.27;;
5117;SDS011;2578;51.622;7.046;2023-03-13T16:24:33;19.50;;;18.20;;
5117;SDS011;2578;51.622;7.046;2023-03-13T16:26:59;20.23;;;18.83;;
5117;SDS011;2578;51.622;7.046;2023-03-13T16:29:25;19.33;;;17.90;;
5117;SDS011;2578;51.622;7.046;2023-03-13T16:31:50;19.70;;;18.30;;
5117;SDS011;2578;51.622;7.046;2023-03-13T16:34:16;18.20;;;17.00;;
5117;SDS011;2578;51.622;7.046;2023-03-13T16:36:42;18.10;;;16.90;;
5117;SDS011;2578;51.622;7.046;2023-03-13T16:39:10;17.70;;;16.60;;
5117;SDS011;2578;51.622;7.046;2023-03-13T16:41:38;18.43;;;17.23;;
5117;SDS011;2578;51.622;7.046;2023-03-13T16:44:04;17.60;;;16.40;;
5117;SDS011;2578;51.622;7.046;2023-03-13T16:46:39;17.13;;;16.03;;
5117;SDS011;2578;51.622;7.046;2023-03-13T16:49:06;15.73;;;14.70;;
5117;SDS011;2578;51.622;7.046;2023-03-13T16:51:38;16.80;;;15.60;;
5117;SDS011;2578;51.622;7.046;2023-03-13T16:54:04;16.97;;;15.87;;
5117;SDS011;2578;51.622;7.046;2023-03-13T16:56:34;17.00;;;15.80;;